Time;durP1;ratioP1;P1;durP2;ratioP2;P2;SDS_P1;SDS_P2;PMS_P1;PMS_P2;Temp;Humidity;BMP_temperature;BMP_pressure;BME280_temperature;BME280_humidity;BME280_pressure;Samples;Min_cycle;Max_cycle;Signal;HPM_P1;HPM_P2
2022/01/10 00:01:28;;;;;;;;;;;4.10;99.90;;;;;;4250247;33;20000;-79
2022/01/10 00:03:56;;;;;;;;;;;4.10;99.90;;;;;;4274081;33;25467;-78
2022/01/10 00:06:26;;;;;;;;;;;4.00;99.90;;;;;;4273492;33;40787;-79
2022/01/10 00:08:53;;;;;;;;;;;4.00;99.90;;;;;;4273213;33;44489;-80
2022/01/10 00:11:22;;;;;;;;;;;4.00;99.90;;;;;;4261792;33;20450;-78
2022/01/10 00:13:51;;;;;;;;;;;4.00;99.90;;;;;;4261445;33;20037;-78
2022/01/10 00:16:18;;;;;;;;;;;4.00;99.90;;;;;;4260699;33;42888;-78
2022/01/10 00:18:45;;;;;;;;;;;4.00;99.90;;;;;;4261760;33;20021;-78
2022/01/10 00:21:15;;;;;;;;;;;4.00;99.90;;;;;;4261195;33;20022;-79
2022/01/10 00:23:45;;;;;;;;;;;3.90;99.90;;;;;;4260650;33;40133;-79
2022/01/10 00:26:12;;;;;;;;;;;3.90;99.90;;;;;;4273669;33;20122;-78
2022/01/10 00:28:42;;;;;;;;;;;3.90;99.90;;;;;;4261492;33;20368;-78
2022/01/10 00:31:12;;;;;;;;;;;3.90;99.90;;;;;;4274441;33;20007;-78
2022/01/10 00:33:45;;;;;;;;;;;3.80;99.90;;;;;;4273801;33;20025;-79
2022/01/10 00:36:14;;;;;;;;;;;3.90;99.90;;;;;;4273452;33;30648;-79
2022/01/10 00:38:41;;;;;;;;;;;3.90;99.90;;;;;;4260796;33;38684;-78
2022/01/10 00:41:11;;;;;;;;;;;3.90;99.90;;;;;;4272610;33;44674;-79
2022/01/10 00:43:45;;;;;;;;;;;3.90;99.90;;;;;;4273046;33;43343;-78
2022/01/10 00:46:16;;;;;;;;;;;3.80;99.90;;;;;;4273251;33;37318;-79
2022/01/10 00:48:49;;;;;;;;;;;3.80;99.90;;;;;;4248076;33;46071;-79
2022/01/10 00:51:24;;;;;;;;;;;3.80;99.90;;;;;;4260114;33;39636;-78
2022/01/10 00:53:54;;;;;;;;;;;3.80;99.90;;;;;;4273163;33;39178;-78
2022/01/10 00:56:21;;;;;;;;;;;3.80;99.90;;;;;;4273013;33;41027;-79
2022/01/10 00:58:51;;;;;;;;;;;3.80;99.90;;;;;;4260082;33;32941;-78
2022/01/10 01:01:20;;;;;;;;;;;3.80;99.90;;;;;;4272520;33;31943;-79
2022/01/10 01:03:48;;;;;;;;;;;3.80;99.90;;;;;;4272960;33;44615;-78
2022/01/10 01:06:16;;;;;;;;;;;3.80;99.90;;;;;;4259995;33;32718;-79
2022/01/10 01:08:44;;;;;;;;;;;3.80;99.90;;;;;;4260774;33;20114;-79
2022/01/10 01:16:18;;;;;;;;;;;3.70;99.90;;;;;;4273661;33;20022;-78
2022/01/10 01:24:10;;;;;;;;;;;3.70;99.90;;;;;;4275956;33;37131;-78
2022/01/10 01:26:44;;;;;;;;;;;3.70;99.90;;;;;;4263417;33;25351;-78
2022/01/10 01:29:37;;;;;;;;;;;3.70;99.90;;;;;;4275780;33;43419;-78
2022/01/10 01:32:07;;;;;;;;;;;3.60;99.90;;;;;;4275676;33;45436;-78
2022/01/10 01:34:37;;;;;;;;;;;3.60;99.90;;;;;;4275486;33;44105;-80
2022/01/10 01:37:06;;;;;;;;;;;3.70;99.90;;;;;;4275903;33;33769;-79
2022/01/10 01:39:38;;;;;;;;;;;3.60;99.90;;;;;;4275201;33;40476;-79
2022/01/10 01:42:28;;;;;;;;;;;3.70;99.90;;;;;;4263868;33;20025;-79
2022/01/10 01:45:01;;;;;;;;;;;3.60;99.90;;;;;;4276592;33;20074;-78
2022/01/10 01:47:33;;;;;;;;;;;3.70;99.90;;;;;;4263665;33;20040;-79
2022/01/10 01:50:10;;;;;;;;;;;3.60;99.90;;;;;;4263880;33;20007;-78
2022/01/10 01:52:42;;;;;;;;;;;3.70;99.90;;;;;;4275223;33;20003;-78
2022/01/10 01:55:11;;;;;;;;;;;3.70;99.90;;;;;;4276395;33;20104;-78
2022/01/10 01:57:41;;;;;;;;;;;3.60;99.90;;;;;;4276098;33;20045;-79
2022/01/10 02:00:14;;;;;;;;;;;3.70;99.90;;;;;;4263881;33;20021;-79
2022/01/10 02:02:41;;;;;;;;;;;3.70;99.90;;;;;;4262979;33;20021;-78
2022/01/10 02:05:17;;;;;;;;;;;3.70;99.90;;;;;;4275566;33;34029;-79
2022/01/10 02:07:45;;;;;;;;;;;3.70;99.90;;;;;;4263217;33;20015;-78
2022/01/10 02:10:15;;;;;;;;;;;3.60;99.90;;;;;;4274978;33;31249;-79
2022/01/10 02:12:45;;;;;;;;;;;3.60;99.90;;;;;;4250772;33;31125;-79
2022/01/10 02:15:24;;;;;;;;;;;3.60;99.90;;;;;;4250769;33;30071;-78
2022/01/10 02:17:58;;;;;;;;;;;3.60;99.90;;;;;;4275201;33;31473;-79
2022/01/10 02:20:35;;;;;;;;;;;3.60;99.90;;;;;;4250136;33;36309;-79
2022/01/10 02:23:07;;;;;;;;;;;3.60;99.90;;;;;;4262674;33;31898;-79
2022/01/10 02:25:37;;;;;;;;;;;3.60;99.90;;;;;;4250335;33;34857;-78
2022/01/10 02:28:07;;;;;;;;;;;3.60;99.90;;;;;;4261810;33;36055;-78
2022/01/10 02:30:37;;;;;;;;;;;3.60;99.90;;;;;;4261966;33;34272;-79
2022/01/10 02:33:04;;;;;;;;;;;3.60;99.90;;;;;;4274286;33;41431;-78
2022/01/10 02:35:52;;;;;;;;;;;3.70;99.90;;;;;;4274701;33;44041;-79
2022/01/10 02:38:19;;;;;;;;;;;3.60;99.90;;;;;;4262408;33;39582;-79
2022/01/10 02:40:48;;;;;;;;;;;3.70;99.90;;;;;;4262064;33;35252;-78
2022/01/10 02:43:15;;;;;;;;;;;3.60;99.90;;;;;;4262114;33;37830;-78
2022/01/10 02:45:42;;;;;;;;;;;3.60;99.90;;;;;;4261907;33;40248;-79
2022/01/10 02:48:10;;;;;;;;;;;3.60;99.90;;;;;;4274157;33;41947;-79
2022/01/10 02:50:37;;;;;;;;;;;3.60;99.90;;;;;;4261511;33;44324;-79
2022/01/10 02:53:04;;;;;;;;;;;3.60;99.90;;;;;;4274201;33;37853;-78
2022/01/10 02:55:31;;;;;;;;;;;3.60;99.90;;;;;;4274914;33;20021;-78
2022/01/10 02:57:58;;;;;;;;;;;3.60;99.90;;;;;;4274128;33;38024;-78
2022/01/10 03:00:26;;;;;;;;;;;3.60;99.90;;;;;;4274527;33;40683;-79
2022/01/10 03:02:54;;;;;;;;;;;3.60;99.90;;;;;;4274434;33;26341;-79
2022/01/10 03:05:22;;;;;;;;;;;3.60;99.90;;;;;;4261284;33;44936;-78
2022/01/10 03:07:51;;;;;;;;;;;3.60;99.90;;;;;;4274047;33;41453;-79
2022/01/10 03:10:19;;;;;;;;;;;3.60;99.90;;;;;;4250316;33;19991;-79
2022/01/10 03:12:46;;;;;;;;;;;3.60;99.90;;;;;;4261589;33;36289;-79
2022/01/10 03:15:17;;;;;;;;;;;3.60;99.90;;;;;;4273568;33;37050;-78
2022/01/10 03:17:45;;;;;;;;;;;3.60;99.90;;;;;;4249262;33;43745;-79
2022/01/10 03:20:12;;;;;;;;;;;3.60;99.90;;;;;;4272757;33;45270;-78
2022/01/10 03:22:39;;;;;;;;;;;3.60;99.90;;;;;;4261096;33;44845;-79
2022/01/10 03:25:09;;;;;;;;;;;3.60;99.90;;;;;;4274970;33;20413;-79
2022/01/10 03:27:42;;;;;;;;;;;3.60;99.90;;;;;;4262548;33;20017;-79
2022/01/10 03:30:10;;;;;;;;;;;3.60;99.90;;;;;;4275214;33;19999;-79
2022/01/10 03:32:37;;;;;;;;;;;3.60;99.90;;;;;;4260828;33;44258;-79
2022/01/10 03:35:05;;;;;;;;;;;3.60;99.90;;;;;;4273841;33;42083;-79
2022/01/10 03:37:32;;;;;;;;;;;3.60;99.90;;;;;;4273793;33;41774;-79
2022/01/10 03:39:59;;;;;;;;;;;3.60;99.90;;;;;;4260685;33;41484;-79
2022/01/10 03:42:26;;;;;;;;;;;3.60;99.90;;;;;;4260647;33;41657;-79
2022/01/10 03:44:53;;;;;;;;;;;3.60;99.90;;;;;;4248444;33;43287;-79
2022/01/10 03:47:21;;;;;;;;;;;3.70;99.90;;;;;;4260961;33;35972;-79
2022/01/10 03:49:49;;;;;;;;;;;3.60;99.90;;;;;;4261489;33;34748;-79
2022/01/10 03:52:16;;;;;;;;;;;3.60;99.90;;;;;;4260943;33;43990;-79
2022/01/10 03:54:46;;;;;;;;;;;3.60;99.90;;;;;;4260608;33;38404;-80
2022/01/10 03:57:13;;;;;;;;;;;3.60;99.90;;;;;;4273402;33;34597;-79
2022/01/10 03:59:40;;;;;;;;;;;3.60;99.90;;;;;;4273138;33;42196;-79
2022/01/10 04:02:08;;;;;;;;;;;3.60;99.90;;;;;;4260222;33;44558;-79
2022/01/10 04:04:37;;;;;;;;;;;3.60;99.90;;;;;;4260402;33;40452;-79
2022/01/10 04:07:05;;;;;;;;;;;3.60;99.90;;;;;;4260664;33;44046;-79
2022/01/10 04:09:32;;;;;;;;;;;3.60;99.90;;;;;;4260161;33;42693;-79
2022/01/10 04:11:59;;;;;;;;;;;3.60;99.90;;;;;;4260367;33;40454;-79
2022/01/10 04:14:26;;;;;;;;;;;3.60;99.90;;;;;;4261720;33;20018;-79
2022/01/10 04:16:54;;;;;;;;;;;3.60;99.90;;;;;;4261603;33;20053;-79
2022/01/10 04:19:24;;;;;;;;;;;3.60;99.90;;;;;;4260966;33;20003;-78
2022/01/10 04:21:51;;;;;;;;;;;3.60;99.90;;;;;;4261242;33;20025;-80
2022/01/10 04:24:21;;;;;;;;;;;3.60;99.90;;;;;;4261242;33;20030;-78
2022/01/10 04:26:49;;;;;;;;;;;3.60;99.90;;;;;;4272077;33;35128;-79
2022/01/10 04:29:19;;;;;;;;;;;3.60;99.90;;;;;;4260046;33;41512;-78
2022/01/10 04:31:48;;;;;;;;;;;3.60;99.90;;;;;;4260941;33;31611;-79
2022/01/10 04:34:18;;;;;;;;;;;3.60;99.90;;;;;;4273060;33;39976;-79
2022/01/10 04:36:50;;;;;;;;;;;3.60;99.90;;;;;;4261231;33;20021;-79
2022/01/10 04:39:21;;;;;;;;;;;3.60;99.90;;;;;;4260776;33;39132;-79
2022/01/10 04:41:48;;;;;;;;;;;3.60;99.90;;;;;;4248832;33;29843;-79
2022/01/10 04:44:17;;;;;;;;;;;3.60;99.90;;;;;;4273367;33;36844;-79
2022/01/10 04:46:51;;;;;;;;;;;3.60;99.90;;;;;;4261319;33;20011;-79
2022/01/10 04:49:24;;;;;;;;;;;3.60;99.90;;;;;;4259783;33;39832;-79
2022/01/10 04:51:56;;;;;;;;;;;3.50;99.90;;;;;;4273927;33;20041;-78
2022/01/10 04:54:24;;;;;;;;;;;3.50;99.90;;;;;;4261261;33;20434;-78
2022/01/10 04:56:56;;;;;;;;;;;3.60;99.90;;;;;;4260068;33;32124;-79
2022/01/10 04:59:23;;;;;;;;;;;3.60;99.90;;;;;;4248400;33;41849;-79
2022/01/10 05:01:52;;;;;;;;;;;3.60;99.90;;;;;;4247668;33;38444;-78
2022/01/10 05:04:20;;;;;;;;;;;3.50;99.90;;;;;;4260002;33;34884;-78
2022/01/10 05:06:49;;;;;;;;;;;3.60;99.90;;;;;;4272385;33;43507;-79
2022/01/10 05:09:22;;;;;;;;;;;3.50;99.90;;;;;;4259832;33;33619;-79
2022/01/10 05:11:49;;;;;;;;;;;3.50;99.90;;;;;;4260646;33;27725;-79
2022/01/10 05:14:22;;;;;;;;;;;3.50;99.90;;;;;;4260742;33;20026;-79
2022/01/10 05:16:49;;;;;;;;;;;3.50;99.90;;;;;;4260462;33;20006;-79
2022/01/10 05:19:19;;;;;;;;;;;3.50;99.90;;;;;;4260707;33;20018;-79
2022/01/10 05:21:46;;;;;;;;;;;3.50;99.90;;;;;;4260109;33;33339;-79
2022/01/10 05:24:16;;;;;;;;;;;3.50;99.90;;;;;;4273928;33;20011;-79
2022/01/10 05:26:46;;;;;;;;;;;3.50;99.90;;;;;;4272728;33;42877;-79
2022/01/10 05:29:17;;;;;;;;;;;3.50;99.90;;;;;;4272567;33;40516;-79
2022/01/10 05:31:49;;;;;;;;;;;3.50;99.90;;;;;;4261535;33;20054;-79
2022/01/10 05:34:17;;;;;;;;;;;3.40;99.90;;;;;;4261234;33;20033;-79
2022/01/10 05:36:46;;;;;;;;;;;3.50;99.90;;;;;;4248145;33;36792;-79
2022/01/10 05:39:14;;;;;;;;;;;3.50;99.90;;;;;;4260436;33;23371;-78
2022/01/10 05:41:46;;;;;;;;;;;3.40;99.90;;;;;;4260673;33;36195;-79
2022/01/10 05:44:13;;;;;;;;;;;3.40;99.90;;;;;;4272865;33;40424;-79
2022/01/10 05:46:43;;;;;;;;;;;3.40;99.90;;;;;;4272883;33;36812;-79
2022/01/10 05:49:18;;;;;;;;;;;3.40;99.90;;;;;;4260406;33;40249;-79
2022/01/10 05:51:48;;;;;;;;;;;3.40;99.90;;;;;;4259254;33;43790;-79
2022/01/10 05:54:18;;;;;;;;;;;3.40;99.90;;;;;;4273324;33;20090;-79
2022/01/10 05:56:52;;;;;;;;;;;3.50;99.90;;;;;;4259542;33;36608;-79
2022/01/10 05:59:19;;;;;;;;;;;3.40;99.90;;;;;;4259852;33;40534;-79
2022/01/10 06:01:49;;;;;;;;;;;3.40;99.90;;;;;;4248365;33;20007;-79
2022/01/10 06:04:19;;;;;;;;;;;3.40;99.90;;;;;;4272653;33;34875;-80
2022/01/10 06:06:47;;;;;;;;;;;3.40;99.90;;;;;;4260856;33;43272;-78
2022/01/10 06:09:16;;;;;;;;;;;3.40;99.90;;;;;;4275612;33;30875;-79
2022/01/10 06:11:43;;;;;;;;;;;3.40;99.90;;;;;;4275151;33;38155;-79
2022/01/10 06:14:16;;;;;;;;;;;3.40;99.90;;;;;;4275451;33;20025;-78
2022/01/10 06:16:44;;;;;;;;;;;3.40;99.90;;;;;;4262609;33;29180;-79
2022/01/10 06:19:16;;;;;;;;;;;3.40;99.90;;;;;;4261984;33;38884;-79
2022/01/10 06:21:43;;;;;;;;;;;3.30;99.90;;;;;;4275129;33;38440;-78
2022/01/10 06:24:11;;;;;;;;;;;3.30;99.90;;;;;;4275488;33;30170;-78
2022/01/10 06:26:41;;;;;;;;;;;3.30;99.90;;;;;;4274459;33;45158;-78
2022/01/10 06:29:08;;;;;;;;;;;3.30;99.90;;;;;;4276066;33;20014;-78
2022/01/10 06:31:37;;;;;;;;;;;3.30;99.90;;;;;;4274608;33;34477;-79
2022/01/10 06:34:07;;;;;;;;;;;3.30;99.90;;;;;;4261786;33;44469;-79
2022/01/10 06:36:36;;;;;;;;;;;3.30;99.90;;;;;;4274629;33;41219;-78
2022/01/10 06:39:06;;;;;;;;;;;3.30;99.90;;;;;;4274707;33;44596;-78
2022/01/10 06:41:33;;;;;;;;;;;3.30;99.90;;;;;;4261764;33;45297;-79
2022/01/10 06:44:00;;;;;;;;;;;3.30;99.90;;;;;;4275207;33;23490;-79
2022/01/10 06:46:28;;;;;;;;;;;3.30;99.90;;;;;;4261344;33;42280;-79
2022/01/10 06:48:55;;;;;;;;;;;3.30;99.90;;;;;;4274163;33;44016;-79
2022/01/10 06:51:22;;;;;;;;;;;3.30;99.90;;;;;;4261600;33;43363;-78
2022/01/10 06:53:49;;;;;;;;;;;3.20;99.90;;;;;;4262429;33;20047;-78
2022/01/10 06:56:16;;;;;;;;;;;3.30;99.90;;;;;;4262629;33;20080;-78
2022/01/10 06:58:43;;;;;;;;;;;3.30;99.90;;;;;;4274044;33;44691;-79
2022/01/10 07:01:11;;;;;;;;;;;3.30;99.90;;;;;;4274362;33;39163;-79
2022/01/10 07:03:38;;;;;;;;;;;3.30;99.90;;;;;;4275301;33;20006;-79
2022/01/10 07:06:05;;;;;;;;;;;3.30;99.90;;;;;;4250079;33;20337;-78
2022/01/10 07:08:35;;;;;;;;;;;3.30;99.90;;;;;;4273882;33;41465;-79
2022/01/10 07:11:05;;;;;;;;;;;3.30;99.90;;;;;;4262635;33;20019;-79
2022/01/10 07:13:33;;;;;;;;;;;3.20;99.90;;;;;;4274114;33;30875;-79
2022/01/10 07:16:00;;;;;;;;;;;3.30;99.90;;;;;;4273953;33;39445;-78
2022/01/10 07:18:37;;;;;;;;;;;3.20;99.90;;;;;;4260973;33;20094;-78
2022/01/10 07:21:07;;;;;;;;;;;3.20;99.90;;;;;;4273747;33;42724;-79
2022/01/10 07:23:37;;;;;;;;;;;3.20;99.90;;;;;;4262490;33;20015;-79
2022/01/10 07:26:07;;;;;;;;;;;3.20;99.90;;;;;;4261388;33;42351;-79
2022/01/10 07:28:34;;;;;;;;;;;3.20;99.90;;;;;;4273759;33;39591;-79
2022/01/10 07:31:07;;;;;;;;;;;3.20;99.90;;;;;;4261951;33;20405;-79
2022/01/10 07:33:35;;;;;;;;;;;3.20;99.90;;;;;;4262237;33;20033;-79
2022/01/10 07:36:05;;;;;;;;;;;3.20;99.90;;;;;;4261597;33;20018;-79
2022/01/10 07:38:35;;;;;;;;;;;3.20;99.90;;;;;;4273877;33;41520;-79
2022/01/10 07:41:06;;;;;;;;;;;3.20;99.90;;;;;;4249160;33;39504;-78
2022/01/10 07:43:36;;;;;;;;;;;3.20;99.90;;;;;;4274916;33;20015;-79
2022/01/10 07:46:07;;;;;;;;;;;3.20;99.90;;;;;;4273995;33;29041;-80
2022/01/10 07:48:38;;;;;;;;;;;3.20;99.90;;;;;;4249376;33;31691;-79
2022/01/10 07:51:09;;;;;;;;;;;3.20;99.90;;;;;;4261064;33;34342;-79
2022/01/10 07:53:39;;;;;;;;;;;3.20;99.90;;;;;;4260898;33;43742;-78
2022/01/10 07:56:09;;;;;;;;;;;3.10;99.90;;;;;;4262306;33;20451;-79
2022/01/10 07:58:39;;;;;;;;;;;3.10;99.90;;;;;;4260797;33;39151;-79
2022/01/10 08:01:13;;;;;;;;;;;3.10;99.90;;;;;;4273515;33;41844;-79
2022/01/10 08:03:41;;;;;;;;;;;3.10;99.90;;;;;;4260906;33;26809;-79
2022/01/10 08:06:08;;;;;;;;;;;3.10;99.90;;;;;;4261108;33;20013;-79
2022/01/10 08:08:35;;;;;;;;;;;3.10;99.90;;;;;;4261685;33;20371;-78
2022/01/10 08:11:02;;;;;;;;;;;3.10;99.90;;;;;;4261739;33;20447;-78
2022/01/10 08:13:32;;;;;;;;;;;3.10;99.90;;;;;;4260661;33;22293;-79
2022/01/10 08:16:00;;;;;;;;;;;3.10;99.90;;;;;;4261087;33;33454;-80
2022/01/10 08:18:34;;;;;;;;;;;3.00;99.90;;;;;;4274417;33;20015;-79
2022/01/10 08:21:06;;;;;;;;;;;3.00;99.90;;;;;;4260698;33;44664;-79
2022/01/10 08:23:33;;;;;;;;;;;3.00;99.90;;;;;;4260851;33;39427;-77
2022/01/10 08:26:00;;;;;;;;;;;3.00;99.90;;;;;;4273751;33;36928;-77
2022/01/10 08:28:28;;;;;;;;;;;3.00;99.90;;;;;;4272899;33;20058;-77
2022/01/10 08:30:58;;;;;;;;;;;3.00;99.90;;;;;;4260655;33;28776;-77
2022/01/10 08:33:28;;;;;;;;;;;3.00;99.90;;;;;;4260299;33;31823;-77
2022/01/10 08:35:55;;;;;;;;;;;3.00;99.90;;;;;;4260464;33;44365;-77
2022/01/10 08:38:24;;;;;;;;;;;3.00;99.90;;;;;;4260532;33;36270;-77
2022/01/10 08:40:54;;;;;;;;;;;3.00;99.90;;;;;;4261541;33;20013;-77
2022/01/10 08:43:21;;;;;;;;;;;3.00;99.90;;;;;;4272983;33;29416;-77
2022/01/10 08:45:48;;;;;;;;;;;3.00;99.90;;;;;;4260337;33;32157;-76
2022/01/10 08:48:15;;;;;;;;;;;3.00;99.90;;;;;;4260376;33;31545;-77
2022/01/10 08:50:46;;;;;;;;;;;3.00;99.90;;;;;;4272530;33;41038;-77
2022/01/10 08:53:18;;;;;;;;;;;2.90;99.90;;;;;;4260133;33;43372;-77
2022/01/10 08:55:50;;;;;;;;;;;2.90;99.90;;;;;;4260827;33;40566;-77
2022/01/10 08:58:21;;;;;;;;;;;2.90;99.90;;;;;;4259967;33;41258;-77
2022/01/10 09:00:48;;;;;;;;;;;2.90;99.90;;;;;;4260264;33;37461;-77
2022/01/10 09:03:16;;;;;;;;;;;2.90;99.90;;;;;;4273614;33;20021;-77
2022/01/10 09:05:46;;;;;;;;;;;2.90;99.90;;;;;;4260604;33;20011;-77
2022/01/10 09:08:18;;;;;;;;;;;2.90;99.90;;;;;;4273940;33;20397;-77
2022/01/10 09:10:51;;;;;;;;;;;2.90;99.90;;;;;;4260925;33;20059;-77
2022/01/10 09:13:21;;;;;;;;;;;2.80;99.90;;;;;;4261523;33;20107;-77
2022/01/10 09:15:48;;;;;;;;;;;2.80;99.90;;;;;;4273601;33;20591;-77
2022/01/10 09:18:16;;;;;;;;;;;2.80;99.90;;;;;;4273976;33;20021;-77
2022/01/10 09:20:50;;;;;;;;;;;2.80;99.90;;;;;;4273868;33;20011;-77
2022/01/10 09:23:18;;;;;;;;;;;2.80;99.90;;;;;;4260438;33;31770;-76
2022/01/10 09:25:49;;;;;;;;;;;2.80;99.90;;;;;;4259808;33;38987;-77
2022/01/10 09:28:17;;;;;;;;;;;2.80;99.90;;;;;;4249375;33;20117;-77
2022/01/10 09:30:47;;;;;;;;;;;2.80;99.90;;;;;;4272462;33;38983;-77
2022/01/10 09:33:15;;;;;;;;;;;2.80;99.90;;;;;;4272638;33;31611;-77
2022/01/10 09:35:44;;;;;;;;;;;2.80;99.90;;;;;;4248477;33;20021;-77
2022/01/10 09:38:14;;;;;;;;;;;2.70;99.90;;;;;;4259517;33;42563;-77
2022/01/10 09:40:42;;;;;;;;;;;2.80;99.90;;;;;;4259862;33;33360;-77
2022/01/10 09:43:18;;;;;;;;;;;2.70;99.90;;;;;;4251467;33;47064;-77
2022/01/10 09:45:50;;;;;;;;;;;2.70;99.90;;;;;;4263791;33;20011;-77
2022/01/10 09:48:20;;;;;;;;;;;2.70;99.90;;;;;;4262048;33;42785;-77
2022/01/10 09:50:50;;;;;;;;;;;2.70;99.90;;;;;;4262797;33;39179;-77
2022/01/10 09:53:18;;;;;;;;;;;2.70;99.90;;;;;;4250522;33;41159;-77
2022/01/10 09:55:48;;;;;;;;;;;2.70;99.90;;;;;;4276621;33;20066;-77
2022/01/10 09:58:18;;;;;;;;;;;2.70;99.90;;;;;;4251404;33;20462;-77
2022/01/10 10:00:53;;;;;;;;;;;2.70;99.90;;;;;;4263436;33;20017;-77
2022/01/10 10:03:23;;;;;;;;;;;2.70;99.90;;;;;;4262264;33;44030;-77
2022/01/10 10:05:59;;;;;;;;;;;2.70;99.90;;;;;;4263485;33;20026;-77
2022/01/10 10:08:27;;;;;;;;;;;2.70;99.90;;;;;;4262323;33;42461;-77
2022/01/10 10:10:54;;;;;;;;;;;2.70;99.90;;;;;;4250734;33;32740;-77
2022/01/10 10:13:28;;;;;;;;;;;2.70;99.90;;;;;;4249983;33;47005;-77
2022/01/10 10:16:04;;;;;;;;;;;2.70;99.90;;;;;;4274961;33;45511;-77
2022/01/10 10:18:31;;;;;;;;;;;2.60;99.90;;;;;;4262680;33;36768;-77
2022/01/10 10:21:01;;;;;;;;;;;2.60;99.90;;;;;;4274820;33;39650;-77
2022/01/10 10:23:31;;;;;;;;;;;2.60;99.90;;;;;;4263213;33;20017;-77
2022/01/10 10:26:01;;;;;;;;;;;2.70;99.90;;;;;;4262719;33;20015;-77
2022/01/10 10:28:36;;;;;;;;;;;2.60;99.90;;;;;;4262622;33;20450;-77
2022/01/10 10:31:03;;;;;;;;;;;2.70;99.90;;;;;;4262199;33;41783;-76
2022/01/10 10:33:33;;;;;;;;;;;2.60;99.90;;;;;;4263220;33;20007;-77
2022/01/10 10:36:07;;;;;;;;;;;2.60;99.90;;;;;;4262569;33;22626;-77
2022/01/10 10:38:37;;;;;;;;;;;2.60;99.90;;;;;;4250026;33;40735;-77
2022/01/10 10:41:05;;;;;;;;;;;2.60;99.90;;;;;;4274397;33;44275;-77
2022/01/10 10:43:37;;;;;;;;;;;2.60;99.90;;;;;;4261547;33;47202;-77
2022/01/10 10:46:12;;;;;;;;;;;2.60;99.90;;;;;;4262582;33;29363;-77
2022/01/10 10:48:43;;;;;;;;;;;2.60;99.90;;;;;;4274998;33;32622;-77
2022/01/10 10:51:13;;;;;;;;;;;2.60;99.90;;;;;;4262219;33;29193;-77
2022/01/10 10:53:42;;;;;;;;;;;2.60;99.90;;;;;;4260463;33;38189;-77
2022/01/10 10:56:09;;;;;;;;;;;2.60;99.90;;;;;;4274037;33;41714;-77
2022/01/10 10:58:39;;;;;;;;;;;2.60;99.90;;;;;;4262945;33;20011;-77
2022/01/10 11:01:09;;;;;;;;;;;2.60;99.90;;;;;;4261645;33;31849;-77
2022/01/10 11:03:36;;;;;;;;;;;2.50;99.90;;;;;;4260363;33;43385;-77
2022/01/10 11:06:05;;;;;;;;;;;2.50;99.90;;;;;;4261111;33;20015;-77
2022/01/10 11:08:36;;;;;;;;;;;2.50;99.90;;;;;;4259765;33;20428;-77
2022/01/10 11:11:03;;;;;;;;;;;2.50;99.90;;;;;;4247333;33;41428;-77
2022/01/10 11:13:31;;;;;;;;;;;2.50;99.90;;;;;;4260713;33;28250;-77
2022/01/10 11:15:59;;;;;;;;;;;2.50;99.90;;;;;;4260333;33;35658;-76
2022/01/10 11:18:26;;;;;;;;;;;2.50;99.90;;;;;;4259660;33;33081;-77
2022/01/10 11:20:55;;;;;;;;;;;2.50;99.90;;;;;;4260235;33;41365;-76
2022/01/10 11:23:37;;;;;;;;;;;2.60;99.90;;;;;;4259411;33;34339;-76
2022/01/10 11:26:08;;;;;;;;;;;2.50;99.90;;;;;;4259144;33;42245;-77
2022/01/10 11:28:44;;;;;;;;;;;2.50;99.90;;;;;;4259645;33;40905;-77
2022/01/10 11:31:17;;;;;;;;;;;2.50;99.90;;;;;;4259995;33;43280;-77
2022/01/10 11:33:45;;;;;;;;;;;2.50;99.90;;;;;;4260286;33;34864;-77
2022/01/10 11:36:13;;;;;;;;;;;2.50;99.90;;;;;;4270070;33;43307;-77
2022/01/10 11:38:45;;;;;;;;;;;2.50;99.90;;;;;;4260154;33;35057;-77
2022/01/10 11:41:13;;;;;;;;;;;2.50;99.90;;;;;;4259871;33;37582;-77
2022/01/10 11:43:43;;;;;;;;;;;2.50;99.90;;;;;;4259800;33;20074;-77
2022/01/10 11:46:16;;;;;;;;;;;2.50;99.90;;;;;;4259821;33;20019;-77
2022/01/10 11:48:55;;;;;;;;;;;2.50;99.90;;;;;;4259759;33;20007;-77
2022/01/10 11:51:23;;;;;;;;;;;2.50;99.90;;;;;;4259394;33;20030;-77
2022/01/10 11:53:53;;;;;;;;;;;2.50;99.90;;;;;;4259486;33;20016;-77
2022/01/10 11:56:26;;;;;;;;;;;2.50;99.90;;;;;;4259867;33;20107;-77
2022/01/10 11:59:09;;;;;;;;;;;2.60;99.90;;;;;;4259897;33;20047;-77
2022/01/10 12:01:44;;;;;;;;;;;2.60;99.90;;;;;;4262441;33;23352;-77
2022/01/10 12:04:14;;;;;;;;;;;2.60;99.90;;;;;;4274327;33;20072;-77
2022/01/10 12:06:47;;;;;;;;;;;2.60;99.90;;;;;;4261629;33;20018;-77
2022/01/10 12:09:18;;;;;;;;;;;2.60;99.90;;;;;;4261474;33;20013;-77
2022/01/10 12:11:51;;;;;;;;;;;2.60;99.90;;;;;;4249969;33;20029;-77
2022/01/10 12:14:21;;;;;;;;;;;2.60;99.90;;;;;;4274679;33;20014;-78
2022/01/10 12:16:54;;;;;;;;;;;2.60;99.90;;;;;;4274223;33;20431;-77
2022/01/10 12:19:27;;;;;;;;;;;2.60;99.90;;;;;;4261284;33;20017;-77
2022/01/10 12:21:57;;;;;;;;;;;2.60;99.90;;;;;;4274716;33;20015;-77
2022/01/10 12:24:31;;;;;;;;;;;2.60;99.90;;;;;;4261619;33;20032;-77
2022/01/10 12:27:03;;;;;;;;;;;2.70;99.90;;;;;;4261573;33;19998;-77
2022/01/10 12:29:33;;;;;;;;;;;2.70;99.90;;;;;;4273467;33;20069;-77
2022/01/10 12:32:07;;;;;;;;;;;2.70;99.90;;;;;;4274227;33;20081;-77
2022/01/10 12:34:36;;;;;;;;;;;2.70;99.90;;;;;;4261587;33;20409;-77
2022/01/10 12:37:06;;;;;;;;;;;2.70;99.90;;;;;;4261894;33;20011;-76
2022/01/10 12:39:38;;;;;;;;;;;2.70;99.90;;;;;;4249384;33;20397;-77
2022/01/10 12:42:09;;;;;;;;;;;2.70;99.90;;;;;;4261490;33;20368;-77
2022/01/10 12:44:41;;;;;;;;;;;2.70;99.90;;;;;;4261021;33;20006;-77
2022/01/10 12:47:15;;;;;;;;;;;2.80;99.90;;;;;;4261669;33;20033;-77
2022/01/10 12:49:47;;;;;;;;;;;2.80;99.90;;;;;;4261220;33;19999;-77
2022/01/10 12:52:14;;;;;;;;;;;2.80;99.90;;;;;;4273594;33;20015;-77
2022/01/10 12:54:49;;;;;;;;;;;2.80;99.90;;;;;;4260563;33;20022;-77
2022/01/10 12:57:23;;;;;;;;;;;2.70;99.90;;;;;;4261321;33;20007;-77
2022/01/10 12:59:53;;;;;;;;;;;2.80;99.90;;;;;;4261367;33;20480;-77
2022/01/10 13:02:24;;;;;;;;;;;2.80;99.90;;;;;;4260441;33;20495;-77
2022/01/10 13:05:08;;;;;;;;;;;2.80;99.90;;;;;;4263263;33;20058;-77
2022/01/10 13:07:39;;;;;;;;;;;2.80;99.90;;;;;;4261380;33;20030;-77
2022/01/10 13:10:19;;;;;;;;;;;2.80;99.90;;;;;;4261192;33;20075;-77
2022/01/10 13:12:50;;;;;;;;;;;2.80;99.90;;;;;;4274000;33;20002;-77
2022/01/10 13:15:20;;;;;;;;;;;2.80;99.90;;;;;;4260669;33;20019;-77
2022/01/10 13:17:55;;;;;;;;;;;2.80;99.90;;;;;;4260827;33;20030;-77
2022/01/10 13:20:27;;;;;;;;;;;2.80;99.90;;;;;;4261107;33;20017;-77
2022/01/10 13:22:58;;;;;;;;;;;2.80;99.90;;;;;;4272866;33;20405;-77
2022/01/10 13:25:25;;;;;;;;;;;2.80;99.90;;;;;;4273847;33;20033;-77
2022/01/10 13:28:02;;;;;;;;;;;2.80;99.90;;;;;;4274211;33;20030;-77
2022/01/10 13:30:29;;;;;;;;;;;2.80;99.90;;;;;;4273837;33;20022;-77
2022/01/10 13:33:00;;;;;;;;;;;2.80;99.90;;;;;;4261000;33;20385;-77
2022/01/10 13:35:31;;;;;;;;;;;2.80;99.90;;;;;;4261182;33;20023;-77
2022/01/10 13:38:12;;;;;;;;;;;2.80;99.90;;;;;;4249116;33;20051;-77
2022/01/10 13:40:40;;;;;;;;;;;2.80;99.90;;;;;;4273696;33;19995;-77
2022/01/10 13:43:09;;;;;;;;;;;2.80;99.90;;;;;;4273587;33;20392;-77
2022/01/10 13:45:43;;;;;;;;;;;2.80;99.90;;;;;;4261007;33;20074;-77
2022/01/10 13:48:16;;;;;;;;;;;2.80;99.90;;;;;;4260014;33;21905;-77
2022/01/10 13:50:46;;;;;;;;;;;2.80;99.90;;;;;;4273736;33;20021;-76
2022/01/10 13:53:23;;;;;;;;;;;2.90;99.90;;;;;;4261303;33;20372;-77
2022/01/10 13:56:19;;;;;;;;;;;2.90;99.90;;;;;;4260392;33;20011;-77
2022/01/10 13:59:07;;;;;;;;;;;2.90;99.90;;;;;;4260952;33;20413;-76
2022/01/10 14:01:41;;;;;;;;;;;2.90;99.90;;;;;;4259763;33;34093;-77
2022/01/10 14:04:24;;;;;;;;;;;2.90;99.90;;;;;;4260234;33;37052;-77
2022/01/10 14:06:52;;;;;;;;;;;2.90;99.90;;;;;;4259818;33;36890;-77
2022/01/10 14:09:22;;;;;;;;;;;2.90;99.90;;;;;;4259160;33;43264;-77
2022/01/10 14:11:49;;;;;;;;;;;3.00;99.90;;;;;;4259155;33;36311;-76
2022/01/10 14:14:16;;;;;;;;;;;3.00;99.90;;;;;;4259863;33;32320;-77
2022/01/10 14:16:48;;;;;;;;;;;3.00;99.90;;;;;;4259126;33;42961;-77
2022/01/10 14:19:17;;;;;;;;;;;3.00;99.90;;;;;;4272683;33;36496;-77
2022/01/10 14:21:45;;;;;;;;;;;2.90;99.90;;;;;;4259019;33;42393;-77
2022/01/10 14:24:19;;;;;;;;;;;3.00;99.90;;;;;;4273320;33;20017;-77
2022/01/10 14:26:46;;;;;;;;;;;2.90;99.90;;;;;;4272445;33;34869;-77
2022/01/10 14:29:20;;;;;;;;;;;2.90;99.90;;;;;;4262448;33;44259;-77
2022/01/10 14:31:47;;;;;;;;;;;3.00;99.90;;;;;;4262238;33;28189;-77
2022/01/10 14:34:15;;;;;;;;;;;3.00;99.90;;;;;;4274870;33;37405;-77
2022/01/10 14:36:43;;;;;;;;;;;3.00;99.90;;;;;;4261765;33;40083;-77
2022/01/10 14:39:12;;;;;;;;;;;2.90;99.90;;;;;;4261645;33;36165;-77
2022/01/10 14:41:42;;;;;;;;;;;3.00;99.90;;;;;;4274483;33;39103;-77
2022/01/10 14:44:09;;;;;;;;;;;3.00;99.90;;;;;;4274159;33;41670;-77
2022/01/10 14:46:36;;;;;;;;;;;3.00;99.90;;;;;;4261796;33;44879;-77
2022/01/10 14:49:04;;;;;;;;;;;3.00;99.90;;;;;;4262180;33;37487;-77
2022/01/10 14:51:31;;;;;;;;;;;2.90;99.90;;;;;;4261230;33;43975;-77
2022/01/10 14:54:01;;;;;;;;;;;3.00;99.90;;;;;;4274867;33;27565;-77
2022/01/10 14:56:31;;;;;;;;;;;2.90;99.90;;;;;;4274696;33;20006;-77
2022/01/10 14:59:03;;;;;;;;;;;3.00;99.90;;;;;;4275054;33;20011;-77